Terminal Aerodrome Forecast
Issued by NWS

Home | Current Version | Previous Version | Graphics & Text | Print | Product List | Glossary On
Versions: 1 2 3 4 5 6 7 8 9 10 11 12 13
000
FTUS45 KGGW 110532
TAFOLF
TAF
KOLF 110532Z 1106/1206 30025G35KT P6SM FEW250 WS020/32045KT
     FM110900 29018G28KT P6SM BKN100
     FM111200 29016G27KT P6SM BKN024
     FM111600 29013G21KT P6SM BKN035
     FM111700 30011KT P6SM SCT030
     FM112300 29007KT P6SM FEW080=

USA.gov is the U.S. government's official web portal to all federal, state and local government web resources and services.